Time;durP1;ratioP1;P1;durP2;ratioP2;P2;SDS_P1;SDS_P2;PMS_P1;PMS_P2;Temp;Humidity;BMP_temperature;BMP_pressure;BME280_temperature;BME280_humidity;BME280_pressure;Samples;Min_cycle;Max_cycle;Signal;HPM_P1;HPM_P2
2022/01/20 00:01:50;;;;;;;113.28;54.20;;;;;;;;;;5064623;28;20480;-57
2022/01/20 00:04:36;;;;;;;111.13;54.50;;;;;;;;;;5066416;28;20138;-58
2022/01/20 00:09:50;;;;;;;;;;;;;;;;;;5065414;28;20020;-57
2022/01/20 00:23:14;;;;;;;116.40;53.03;;;;;;;;;;5065552;28;20448;-59
2022/01/20 00:26:24;;;;;;;131.60;59.30;;;;;;;;;;5041496;28;20068;-60
2022/01/20 00:28:55;;;;;;;132.68;61.42;;;;;;;;;;5040796;28;20056;-60
2022/01/20 00:33:56;;;;;;;124.03;61.13;;;;;;;;;;5040061;28;20573;-58
2022/01/20 00:39:07;;;;;;;111.63;54.75;;;;;;;;;;5041953;28;20418;-59
2022/01/20 00:41:33;;;;;;;133.85;59.00;;;;;;;;;;5040733;28;20543;-59
2022/01/20 00:43:59;;;;;;;117.88;57.00;;;;;;;;;;5040802;28;20434;-59
2022/01/20 00:46:25;;;;;;;123.53;55.75;;;;;;;;;;5040316;28;20094;-59
2022/01/20 00:48:51;;;;;;;127.38;58.25;;;;;;;;;;5041689;28;20029;-57
2022/01/20 00:51:18;;;;;;;113.07;51.97;;;;;;;;;;5040667;28;20040;-58
2022/01/20 00:53:44;;;;;;;105.80;53.78;;;;;;;;;;5040310;28;20060;-59
2022/01/20 00:56:13;;;;;;;109.55;50.92;;;;;;;;;;5023399;28;20430;-58
2022/01/20 00:58:42;;;;;;;106.57;51.90;;;;;;;;;;5039790;28;20052;-59
2022/01/20 01:01:08;;;;;;;102.13;48.95;;;;;;;;;;5060274;28;20045;-60
2022/01/20 01:03:36;;;;;;;106.88;53.30;;;;;;;;;;5063558;28;20028;-59
2022/01/20 01:06:18;;;;;;;111.88;53.05;;;;;;;;;;5063632;28;20039;-59
2022/01/20 01:08:44;;;;;;;121.40;53.00;;;;;;;;;;5063287;28;20525;-62
2022/01/20 01:11:13;;;;;;;121.28;54.42;;;;;;;;;;5063365;28;20077;-60
2022/01/20 01:13:39;;;;;;;110.20;55.15;;;;;;;;;;5063146;28;20035;-60
2022/01/20 01:16:09;;;;;;;112.50;55.20;;;;;;;;;;5064251;28;20016;-61
2022/01/20 01:21:41;;;;;;;111.95;53.00;;;;;;;;;;5063376;28;20031;-60
2022/01/20 01:24:07;;;;;;;111.28;54.28;;;;;;;;;;5063003;28;20020;-60
2022/01/20 01:26:33;;;;;;;134.68;66.13;;;;;;;;;;5062482;28;20155;-59
2022/01/20 01:29:00;;;;;;;153.85;73.55;;;;;;;;;;5062664;28;20063;-60
2022/01/20 01:31:38;;;;;;;110.95;53.88;;;;;;;;;;5064994;28;20028;-59
2022/01/20 01:34:12;;;;;;;145.07;71.25;;;;;;;;;;5062531;28;20029;-58
2022/01/20 01:37:34;;;;;;;113.63;56.00;;;;;;;;;;5062603;28;20024;-60
2022/01/20 01:39:30;;;;;;;126.35;60.85;;;;;;;;;;5061488;28;20434;-59
2022/01/20 01:41:57;;;;;;;119.78;55.92;;;;;;;;;;5062588;28;20024;-59
2022/01/20 01:44:27;;;;;;;122.55;55.95;;;;;;;;;;5068737;28;20048;-57
2022/01/20 01:46:54;;;;;;;114.20;56.72;;;;;;;;;;5073212;28;20481;-58
2022/01/20 01:49:21;;;;;;;120.25;58.95;;;;;;;;;;5073402;28;20103;-58
2022/01/20 01:51:47;;;;;;;150.13;67.00;;;;;;;;;;5073560;28;20020;-58
2022/01/20 01:54:16;;;;;;;161.48;67.25;;;;;;;;;;5073562;28;20485;-58
2022/01/20 01:56:43;;;;;;;141.52;65.20;;;;;;;;;;5073465;28;20029;-57
2022/01/20 01:59:09;;;;;;;130.80;59.75;;;;;;;;;;5073490;28;20035;-58
2022/01/20 02:01:37;;;;;;;130.48;60.25;;;;;;;;;;5073587;28;20020;-58
2022/01/20 02:04:23;;;;;;;122.95;60.10;;;;;;;;;;5073386;28;20035;-58
2022/01/20 02:07:45;;;;;;;144.38;68.38;;;;;;;;;;5072319;28;20068;-59
2022/01/20 02:20:26;;;;;;;112.13;53.70;;;;;;;;;;5073431;28;20025;-57
2022/01/20 02:22:52;;;;;;;121.28;58.08;;;;;;;;;;5073359;28;20027;-58
2022/01/20 02:25:22;;;;;;;123.00;56.92;;;;;;;;;;5073074;28;20149;-58
2022/01/20 02:27:48;;;;;;;112.85;56.45;;;;;;;;;;5071898;28;20508;-58
2022/01/20 02:30:19;;;;;;;116.57;59.08;;;;;;;;;;5073164;28;20060;-58
2022/01/20 02:32:55;;;;;;;127.03;61.97;;;;;;;;;;5073288;28;20024;-57
2022/01/20 02:35:22;;;;;;;128.45;61.13;;;;;;;;;;5073305;28;20028;-57
2022/01/20 02:37:53;;;;;;;119.93;56.22;;;;;;;;;;5073040;28;20148;-58
2022/01/20 02:44:49;;;;;;;132.93;63.08;;;;;;;;;;5073326;28;20044;-58
2022/01/20 02:46:04;;;;;;;130.60;65.22;;;;;;;;;;5073250;28;20039;-57
2022/01/20 02:48:30;;;;;;;143.45;70.20;;;;;;;;;;5073136;28;20119;-57
2022/01/20 02:50:59;;;;;;;108.50;57.17;;;;;;;;;;5073150;28;20020;-58
2022/01/20 02:53:25;;;;;;;111.32;54.30;;;;;;;;;;5073041;28;20042;-59
2022/01/20 02:55:51;;;;;;;107.20;53.58;;;;;;;;;;5072915;28;20017;-58
2022/01/20 02:58:18;;;;;;;119.05;56.25;;;;;;;;;;5077057;28;20046;-59
2022/01/20 03:00:44;;;;;;;113.10;55.97;;;;;;;;;;5077032;28;20029;-58
2022/01/20 03:03:10;;;;;;;122.05;59.90;;;;;;;;;;5076803;28;20031;-58
2022/01/20 03:05:36;;;;;;;118.22;55.78;;;;;;;;;;5076858;28;20458;-57
2022/01/20 03:08:02;;;;;;;124.47;58.60;;;;;;;;;;5076844;28;20036;-56
2022/01/20 03:10:29;;;;;;;108.65;54.15;;;;;;;;;;5076993;28;20028;-58
2022/01/20 03:12:55;;;;;;;116.70;59.03;;;;;;;;;;5076794;28;20024;-58
2022/01/20 03:15:22;;;;;;;124.55;60.53;;;;;;;;;;5076693;28;20032;-57
2022/01/20 03:17:48;;;;;;;128.82;61.28;;;;;;;;;;5076647;28;20391;-57
2022/01/20 03:20:14;;;;;;;110.68;54.92;;;;;;;;;;5076707;28;20067;-56
2022/01/20 03:22:41;;;;;;;121.20;58.25;;;;;;;;;;5076553;28;20099;-57
2022/01/20 03:25:11;;;;;;;113.78;56.47;;;;;;;;;;5076376;28;20402;-57
2022/01/20 03:27:39;;;;;;;132.20;62.50;;;;;;;;;;5076163;28;20049;-58
2022/01/20 03:30:06;;;;;;;104.65;52.50;;;;;;;;;;5077007;28;20052;-58
2022/01/20 03:32:34;;;;;;;114.72;58.75;;;;;;;;;;5076232;28;20048;-59
2022/01/20 03:35:00;;;;;;;111.30;55.35;;;;;;;;;;5076571;28;20048;-57
2022/01/20 03:37:26;;;;;;;117.05;56.22;;;;;;;;;;5076129;28;20021;-58
2022/01/20 03:39:52;;;;;;;110.60;54.55;;;;;;;;;;5076206;28;20031;-57
2022/01/20 03:42:21;;;;;;;111.95;54.92;;;;;;;;;;5076376;28;20028;-57
2022/01/20 03:44:47;;;;;;;111.72;54.42;;;;;;;;;;5076133;28;20017;-57
2022/01/20 03:47:13;;;;;;;115.70;57.22;;;;;;;;;;5075910;28;20033;-57
2022/01/20 03:49:52;;;;;;;100.45;54.22;;;;;;;;;;5076062;28;20103;-58
2022/01/20 03:52:18;;;;;;;116.60;57.30;;;;;;;;;;5076038;28;20035;-59
2022/01/20 03:54:44;;;;;;;114.18;57.67;;;;;;;;;;5076002;28;20458;-58
2022/01/20 03:57:10;;;;;;;119.85;55.88;;;;;;;;;;5076118;28;20417;-58
2022/01/20 03:59:36;;;;;;;115.00;53.08;;;;;;;;;;5075692;28;20028;-58
2022/01/20 04:02:05;;;;;;;112.40;53.38;;;;;;;;;;5076073;28;20797;-59
2022/01/20 04:04:31;;;;;;;102.65;50.80;;;;;;;;;;5074422;28;20516;-58
2022/01/20 04:06:57;;;;;;;111.07;52.22;;;;;;;;;;5075608;28;20133;-59
2022/01/20 04:09:23;;;;;;;105.95;51.08;;;;;;;;;;5074859;28;20052;-57
2022/01/20 04:11:50;;;;;;;122.85;57.63;;;;;;;;;;5075635;28;20024;-57
2022/01/20 04:14:23;;;;;;;104.95;49.15;;;;;;;;;;5075651;28;20029;-58
2022/01/20 04:17:06;;;;;;;110.35;54.65;;;;;;;;;;5075441;28;20526;-57
2022/01/20 04:19:33;;;;;;;109.13;51.65;;;;;;;;;;5075615;28;20022;-57
2022/01/20 04:22:00;;;;;;;119.45;56.25;;;;;;;;;;5075418;28;20031;-59
2022/01/20 04:24:26;;;;;;;103.80;49.53;;;;;;;;;;5074415;28;20036;-57
2022/01/20 04:27:00;;;;;;;113.18;52.10;;;;;;;;;;5075304;28;20028;-58
2022/01/20 04:29:26;;;;;;;107.05;48.60;;;;;;;;;;5075107;28;20514;-57
2022/01/20 04:31:55;;;;;;;94.43;45.22;;;;;;;;;;5075533;28;20019;-59
2022/01/20 04:34:21;;;;;;;97.97;46.35;;;;;;;;;;5075090;28;20042;-59
2022/01/20 04:36:50;;;;;;;87.10;42.35;;;;;;;;;;5075369;28;20025;-58
2022/01/20 04:39:19;;;;;;;90.63;42.65;;;;;;;;;;5075217;28;20465;-58
2022/01/20 04:41:46;;;;;;;92.85;43.10;;;;;;;;;;5075005;28;20082;-57
2022/01/20 04:44:29;;;;;;;93.80;44.30;;;;;;;;;;5074981;28;20016;-56
2022/01/20 04:47:05;;;;;;;87.55;43.90;;;;;;;;;;5074921;28;20028;-57
2022/01/20 04:57:45;;;;;;;101.47;47.85;;;;;;;;;;5075001;28;20047;-58
2022/01/20 05:00:11;;;;;;;94.55;44.67;;;;;;;;;;5074770;28;20037;-57
2022/01/20 05:02:37;;;;;;;93.93;42.60;;;;;;;;;;5074547;28;20024;-56
2022/01/20 05:05:03;;;;;;;84.53;41.95;;;;;;;;;;5074501;28;20496;-57
2022/01/20 05:07:30;;;;;;;89.40;42.85;;;;;;;;;;5074471;28;20137;-57
2022/01/20 05:09:57;;;;;;;88.82;40.53;;;;;;;;;;5073387;28;20425;-57
2022/01/20 05:12:32;;;;;;;90.95;43.13;;;;;;;;;;5074491;28;20520;-58
2022/01/20 05:14:58;;;;;;;103.78;47.75;;;;;;;;;;5074245;28;20381;-58
2022/01/20 05:17:24;;;;;;;116.30;50.58;;;;;;;;;;5074279;28;20021;-57
2022/01/20 05:19:50;;;;;;;109.55;49.20;;;;;;;;;;5074238;28;20028;-57
2022/01/20 05:22:16;;;;;;;121.15;50.67;;;;;;;;;;5074243;28;20031;-57
2022/01/20 05:24:42;;;;;;;106.32;49.00;;;;;;;;;;5072804;28;20020;-58
2022/01/20 05:27:08;;;;;;;100.28;45.10;;;;;;;;;;5074287;28;20044;-58
2022/01/20 05:29:34;;;;;;;91.85;40.00;;;;;;;;;;5073944;28;20048;-57
2022/01/20 05:32:01;;;;;;;90.68;45.60;;;;;;;;;;5074104;28;20031;-57
2022/01/20 05:34:27;;;;;;;92.07;46.30;;;;;;;;;;5073780;28;20028;-58
2022/01/20 05:36:53;;;;;;;92.82;41.90;;;;;;;;;;5074018;28;20172;-58
2022/01/20 05:39:19;;;;;;;86.43;40.67;;;;;;;;;;5073832;28;20031;-58
2022/01/20 05:41:48;;;;;;;80.10;36.20;;;;;;;;;;5073817;28;20029;-59
2022/01/20 05:44:14;;;;;;;81.40;38.30;;;;;;;;;;5073959;28;20021;-58
2022/01/20 05:46:46;;;;;;;76.43;33.78;;;;;;;;;;5073749;28;20059;-58
2022/01/20 05:49:20;;;;;;;117.95;52.63;;;;;;;;;;5073720;28;20040;-57
2022/01/20 05:51:46;;;;;;;194.43;91.28;;;;;;;;;;5073648;28;20099;-58
2022/01/20 05:54:12;;;;;;;189.65;90.72;;;;;;;;;;5073667;28;20486;-57
2022/01/20 05:56:38;;;;;;;242.85;97.43;;;;;;;;;;5073787;28;20056;-57
2022/01/20 05:59:04;;;;;;;274.85;100.05;;;;;;;;;;5073655;28;20082;-56
2022/01/20 06:01:32;;;;;;;275.70;101.25;;;;;;;;;;5073453;28;20466;-56
2022/01/20 06:03:59;;;;;;;241.77;91.68;;;;;;;;;;5073861;28;20406;-56
2022/01/20 06:06:25;;;;;;;191.35;79.63;;;;;;;;;;5073536;28;20090;-57
2022/01/20 06:08:51;;;;;;;160.70;69.25;;;;;;;;;;5073299;28;20039;-59
2022/01/20 06:11:17;;;;;;;113.20;50.58;;;;;;;;;;5073752;28;20046;-58
2022/01/20 06:13:43;;;;;;;106.00;47.08;;;;;;;;;;5073393;28;20027;-58
2022/01/20 06:16:10;;;;;;;101.65;45.40;;;;;;;;;;5073345;28;20459;-57
2022/01/20 06:18:36;;;;;;;88.00;44.72;;;;;;;;;;5073429;28;20029;-57
2022/01/20 06:21:02;;;;;;;85.35;41.63;;;;;;;;;;5073334;28;20024;-58
2022/01/20 06:23:29;;;;;;;87.13;38.42;;;;;;;;;;5073242;28;20554;-58
2022/01/20 06:25:55;;;;;;;76.82;37.30;;;;;;;;;;5073288;28;20100;-59
2022/01/20 06:28:21;;;;;;;81.65;37.72;;;;;;;;;;5072982;28;20048;-57
2022/01/20 06:30:48;;;;;;;81.57;37.33;;;;;;;;;;5072669;28;20021;-58
2022/01/20 06:33:14;;;;;;;81.07;38.58;;;;;;;;;;5073081;28;20104;-61
2022/01/20 06:35:40;;;;;;;82.25;39.35;;;;;;;;;;5072115;28;20033;-57
2022/01/20 06:38:06;;;;;;;82.40;39.78;;;;;;;;;;5073114;28;20033;-57
2022/01/20 06:40:33;;;;;;;79.93;38.88;;;;;;;;;;5073064;28;20107;-57
2022/01/20 06:42:59;;;;;;;82.65;39.40;;;;;;;;;;5073030;28;20421;-57
2022/01/20 06:45:25;;;;;;;89.68;43.83;;;;;;;;;;5073063;28;20067;-56
2022/01/20 06:47:54;;;;;;;92.43;42.75;;;;;;;;;;5073047;28;20044;-57
2022/01/20 06:50:20;;;;;;;87.18;41.53;;;;;;;;;;5071922;28;20470;-57
2022/01/20 06:52:46;;;;;;;86.72;41.17;;;;;;;;;;5072905;28;20424;-56
2022/01/20 06:55:13;;;;;;;87.15;42.30;;;;;;;;;;5073090;28;20095;-56
2022/01/20 06:57:39;;;;;;;91.53;40.10;;;;;;;;;;5072768;28;20036;-57
2022/01/20 07:00:10;;;;;;;85.20;41.03;;;;;;;;;;5072952;28;20052;-57
2022/01/20 07:02:36;;;;;;;88.55;41.70;;;;;;;;;;5072910;28;20426;-58
2022/01/20 07:05:03;;;;;;;87.97;42.92;;;;;;;;;;5072857;28;20020;-58
2022/01/20 07:07:30;;;;;;;84.85;41.03;;;;;;;;;;5072760;28;20044;-58
2022/01/20 07:09:56;;;;;;;84.78;40.97;;;;;;;;;;5073397;28;20074;-59
2022/01/20 07:12:23;;;;;;;87.18;41.60;;;;;;;;;;5072919;28;20471;-59
2022/01/20 07:14:49;;;;;;;92.95;43.28;;;;;;;;;;5072830;28;20029;-58
2022/01/20 07:17:15;;;;;;;85.22;42.15;;;;;;;;;;5072588;28;20486;-57
2022/01/20 07:19:41;;;;;;;98.68;46.63;;;;;;;;;;5072800;28;20378;-58
2022/01/20 07:22:07;;;;;;;106.22;52.28;;;;;;;;;;5072945;28;20021;-58
2022/01/20 07:24:33;;;;;;;95.50;45.78;;;;;;;;;;5072946;28;20031;-58
2022/01/20 07:26:59;;;;;;;96.93;47.25;;;;;;;;;;5072707;28;20101;-59
2022/01/20 07:29:26;;;;;;;100.55;48.10;;;;;;;;;;5072690;28;20056;-58
2022/01/20 07:31:53;;;;;;;103.57;48.13;;;;;;;;;;5072543;28;20021;-56
2022/01/20 07:34:19;;;;;;;114.80;53.42;;;;;;;;;;5072690;28;20028;-57
2022/01/20 07:36:46;;;;;;;111.07;52.60;;;;;;;;;;5072949;28;20500;-58
2022/01/20 07:39:12;;;;;;;101.82;48.45;;;;;;;;;;5072533;28;20390;-58
2022/01/20 07:41:38;;;;;;;101.63;48.33;;;;;;;;;;5072242;28;20036;-58
2022/01/20 07:44:04;;;;;;;112.47;50.13;;;;;;;;;;5074218;28;20103;-63
2022/01/20 07:46:30;;;;;;;134.80;64.72;;;;;;;;;;5076000;28;20064;-61
2022/01/20 07:48:56;;;;;;;129.02;59.38;;;;;;;;;;5075872;28;20036;-61
2022/01/20 07:51:22;;;;;;;126.43;62.55;;;;;;;;;;5075820;28;20017;-61
2022/01/20 07:53:51;;;;;;;148.05;72.38;;;;;;;;;;5075698;28;20468;-61
2022/01/20 07:56:17;;;;;;;186.88;85.80;;;;;;;;;;5075885;28;20474;-60
2022/01/20 07:58:43;;;;;;;212.80;92.18;;;;;;;;;;5075659;28;20470;-61
2022/01/20 08:01:12;;;;;;;247.32;101.75;;;;;;;;;;5075790;28;20063;-46
2022/01/20 08:03:38;;;;;;;192.88;86.03;;;;;;;;;;5075564;28;20525;-53
2022/01/20 08:06:04;;;;;;;157.63;72.32;;;;;;;;;;5075610;28;20112;-46
2022/01/20 08:08:30;;;;;;;161.13;73.28;;;;;;;;;;5075346;28;20505;-42
2022/01/20 08:10:58;;;;;;;174.07;83.70;;;;;;;;;;5075489;28;20024;-71
2022/01/20 08:13:25;;;;;;;175.13;83.00;;;;;;;;;;5075385;28;20099;-62
2022/01/20 08:15:53;;;;;;;158.73;77.75;;;;;;;;;;5074050;28;20030;-63
2022/01/20 08:18:19;;;;;;;168.00;83.55;;;;;;;;;;5075294;28;20453;-63
2022/01/20 08:20:45;;;;;;;153.50;77.90;;;;;;;;;;5075356;28;20036;-64
2022/01/20 08:23:14;;;;;;;142.70;72.60;;;;;;;;;;5075392;28;20024;-63
2022/01/20 08:25:40;;;;;;;136.77;66.72;;;;;;;;;;5075476;28;20035;-63
2022/01/20 08:28:06;;;;;;;139.00;67.78;;;;;;;;;;5074928;28;20098;-62
2022/01/20 08:30:32;;;;;;;150.50;76.40;;;;;;;;;;5075265;28;20112;-62
2022/01/20 08:32:59;;;;;;;166.88;86.30;;;;;;;;;;5075106;28;20099;-62
2022/01/20 08:35:31;;;;;;;158.00;84.50;;;;;;;;;;5074940;28;20021;-63
2022/01/20 08:37:58;;;;;;;;;;;;;;;;;;5075480;28;20021;-61
2022/01/20 08:40:28;;;;;;;131.82;64.38;;;;;;;;;;5074969;28;20017;-64
2022/01/20 08:42:58;;;;;;;129.35;64.05;;;;;;;;;;5075028;28;20019;-63
2022/01/20 08:45:27;;;;;;;141.38;70.35;;;;;;;;;;5074765;28;20032;-63
2022/01/20 08:47:55;;;;;;;151.10;73.85;;;;;;;;;;5075166;28;20379;-64
2022/01/20 08:50:21;;;;;;;195.38;91.65;;;;;;;;;;5074863;28;20017;-62
2022/01/20 08:52:47;;;;;;;178.07;88.72;;;;;;;;;;5074812;28;20029;-63
2022/01/20 08:55:14;;;;;;;164.07;78.82;;;;;;;;;;5074432;28;20509;-63
2022/01/20 08:57:40;;;;;;;153.50;77.53;;;;;;;;;;5074628;28;20039;-63
2022/01/20 09:00:07;;;;;;;124.32;63.35;;;;;;;;;;5074573;28;20480;-62
2022/01/20 09:02:33;;;;;;;114.45;61.50;;;;;;;;;;5074732;28;20391;-61
2022/01/20 09:05:01;;;;;;;118.57;63.42;;;;;;;;;;5074520;28;20031;-65
2022/01/20 09:07:27;;;;;;;122.35;66.55;;;;;;;;;;5074683;28;20062;-65
2022/01/20 09:09:55;;;;;;;196.88;97.50;;;;;;;;;;5074696;28;20067;-66
2022/01/20 09:15:42;;;;;;;143.77;74.40;;;;;;;;;;5074140;28;20051;-64
2022/01/20 09:17:50;;;;;;;162.55;81.97;;;;;;;;;;5071111;28;20032;-65
2022/01/20 09:20:16;;;;;;;157.40;86.18;;;;;;;;;;5074166;28;20017;-63
2022/01/20 09:22:45;;;;;;;148.25;83.30;;;;;;;;;;5074162;28;20027;-63
2022/01/20 09:25:11;;;;;;;147.80;76.50;;;;;;;;;;5074151;28;20038;-63
2022/01/20 09:27:39;;;;;;;132.10;73.30;;;;;;;;;;5074026;28;20068;-63
2022/01/20 09:30:10;;;;;;;162.05;84.88;;;;;;;;;;5074269;28;20049;-61
2022/01/20 09:32:40;;;;;;;186.45;98.68;;;;;;;;;;5074062;28;20025;-63
2022/01/20 09:35:06;;;;;;;207.10;102.82;;;;;;;;;;5075661;28;20602;-60
2022/01/20 09:37:34;;;;;;;236.52;116.22;;;;;;;;;;5073579;28;20378;-64
2022/01/20 09:40:00;;;;;;;246.68;121.45;;;;;;;;;;5073617;28;20107;-59
2022/01/20 09:42:27;;;;;;;288.60;143.70;;;;;;;;;;5073946;28;20013;-62
2022/01/20 09:44:54;;;;;;;274.17;138.32;;;;;;;;;;5074184;28;20098;-63
2022/01/20 09:47:20;;;;;;;236.32;124.63;;;;;;;;;;5073787;28;20016;-63
2022/01/20 09:49:46;;;;;;;219.30;121.40;;;;;;;;;;5073737;28;20112;-64
2022/01/20 09:52:12;;;;;;;188.75;104.32;;;;;;;;;;5073748;28;20025;-64
2022/01/20 09:54:39;;;;;;;183.45;105.57;;;;;;;;;;5073571;28;20032;-65
2022/01/20 09:57:05;;;;;;;174.05;97.57;;;;;;;;;;5073405;28;20033;-63
2022/01/20 09:59:32;;;;;;;169.32;90.97;;;;;;;;;;5073434;28;20032;-62
2022/01/20 10:02:01;;;;;;;170.95;89.68;;;;;;;;;;5073522;28;20028;-62
2022/01/20 10:04:30;;;;;;;138.13;72.68;;;;;;;;;;5073387;28;20020;-60
2022/01/20 10:07:09;;;;;;;131.88;71.95;;;;;;;;;;5072779;28;20080;-61
2022/01/20 10:09:38;;;;;;;124.25;69.50;;;;;;;;;;5073353;28;20032;-59
2022/01/20 10:12:05;;;;;;;151.50;80.80;;;;;;;;;;5073594;28;20441;-61
2022/01/20 10:14:43;;;;;;;164.23;88.97;;;;;;;;;;5073416;28;20037;-50
2022/01/20 10:17:19;;;;;;;202.20;105.88;;;;;;;;;;5073332;28;20032;-62
2022/01/20 10:19:45;;;;;;;156.68;80.45;;;;;;;;;;5073262;28;20047;-61
2022/01/20 10:22:15;;;;;;;134.55;65.25;;;;;;;;;;5073198;28;20020;-62
2022/01/20 10:24:41;;;;;;;126.25;63.30;;;;;;;;;;5073361;28;20025;-61
2022/01/20 10:27:12;;;;;;;154.38;76.20;;;;;;;;;;5073493;28;20028;-60
2022/01/20 10:29:40;;;;;;;147.30;70.55;;;;;;;;;;5073091;28;20116;-58
2022/01/20 10:32:06;;;;;;;161.48;72.38;;;;;;;;;;5073276;28;20045;-62
2022/01/20 10:34:37;;;;;;;145.23;75.72;;;;;;;;;;5073090;28;20047;-62
2022/01/20 10:37:15;;;;;;;191.02;103.47;;;;;;;;;;5073139;28;20028;-59
2022/01/20 10:39:44;;;;;;;123.97;65.88;;;;;;;;;;5073122;28;20032;-57
2022/01/20 10:42:19;;;;;;;127.15;66.82;;;;;;;;;;5072939;28;20028;-60
2022/01/20 10:44:49;;;;;;;137.88;71.72;;;;;;;;;;5073099;28;20058;-60
2022/01/20 10:47:16;;;;;;;115.18;63.30;;;;;;;;;;5072904;28;20100;-60
2022/01/20 10:49:44;;;;;;;158.63;82.63;;;;;;;;;;5072843;28;20036;-62
2022/01/20 10:52:11;;;;;;;149.85;81.25;;;;;;;;;;5072995;28;20017;-60
2022/01/20 10:54:47;;;;;;;123.57;66.30;;;;;;;;;;5073375;28;20108;-60
2022/01/20 10:57:16;;;;;;;120.75;60.67;;;;;;;;;;5073178;28;20056;-61
2022/01/20 10:59:48;;;;;;;131.60;70.28;;;;;;;;;;5072823;28;20517;-61
2022/01/20 11:02:18;;;;;;;94.38;52.25;;;;;;;;;;5073060;28;20082;-61
2022/01/20 11:04:46;;;;;;;94.00;50.28;;;;;;;;;;5072838;28;20124;-61
2022/01/20 11:07:12;;;;;;;134.05;67.40;;;;;;;;;;5072827;28;20027;-61
2022/01/20 11:09:42;;;;;;;100.20;53.80;;;;;;;;;;5072783;28;20033;-61
2022/01/20 11:12:11;;;;;;;115.55;60.65;;;;;;;;;;5072709;28;20028;-61
2022/01/20 11:14:37;;;;;;;113.57;56.08;;;;;;;;;;5072656;28;20025;-62
2022/01/20 11:17:04;;;;;;;94.47;51.70;;;;;;;;;;5073263;28;20027;-60
2022/01/20 11:19:36;;;;;;;101.47;53.30;;;;;;;;;;5076640;28;20172;-60
2022/01/20 11:22:12;;;;;;;108.50;52.50;;;;;;;;;;5076754;28;20052;-61
2022/01/20 11:24:39;;;;;;;106.82;54.78;;;;;;;;;;5076472;28;20467;-62
2022/01/20 11:27:06;;;;;;;106.80;59.58;;;;;;;;;;5076738;28;20028;-59
2022/01/20 11:29:44;;;;;;;103.03;56.03;;;;;;;;;;5076001;28;20053;-60
2022/01/20 11:32:18;;;;;;;126.28;68.38;;;;;;;;;;5076094;28;20104;-60
2022/01/20 11:35:01;;;;;;;120.50;63.28;;;;;;;;;;5075998;28;20051;-61
2022/01/20 11:37:29;;;;;;;119.78;65.22;;;;;;;;;;5076096;28;20036;-59
2022/01/20 11:39:55;;;;;;;107.80;54.03;;;;;;;;;;5076144;28;20037;-60
2022/01/20 11:42:23;;;;;;;86.90;48.58;;;;;;;;;;5076122;28;20064;-60
2022/01/20 11:44:49;;;;;;;98.53;49.42;;;;;;;;;;5076191;28;20075;-60
2022/01/20 11:47:15;;;;;;;107.35;56.03;;;;;;;;;;5076078;28;20017;-57
2022/01/20 11:49:45;;;;;;;116.07;60.17;;;;;;;;;;5079880;28;20039;-60
2022/01/20 11:52:22;;;;;;;112.03;59.95;;;;;;;;;;5095698;28;20024;-59
2022/01/20 11:54:48;;;;;;;99.90;52.97;;;;;;;;;;5095650;28;20027;-59
2022/01/20 11:57:14;;;;;;;103.80;56.00;;;;;;;;;;5093083;28;20024;-59
2022/01/20 11:59:44;;;;;;;117.03;60.10;;;;;;;;;;5095513;28;20047;-59
2022/01/20 12:02:10;;;;;;;88.35;45.60;;;;;;;;;;5095523;28;20508;-58
2022/01/20 12:04:43;;;;;;;158.85;85.38;;;;;;;;;;5095412;28;20103;-59
2022/01/20 12:07:10;;;;;;;110.78;54.25;;;;;;;;;;5095270;28;20394;-60
2022/01/20 12:09:37;;;;;;;98.95;50.40;;;;;;;;;;5095289;28;20043;-58
2022/01/20 12:12:05;;;;;;;98.18;49.45;;;;;;;;;;5095533;28;20020;-61
2022/01/20 12:14:35;;;;;;;100.75;46.88;;;;;;;;;;5095292;28;20024;-60
2022/01/20 12:17:04;;;;;;;98.55;49.22;;;;;;;;;;5095621;28;20027;-60
2022/01/20 12:19:30;;;;;;;111.38;54.17;;;;;;;;;;5095596;28;20048;-60
2022/01/20 12:21:56;;;;;;;118.82;53.47;;;;;;;;;;5095110;28;20099;-60
2022/01/20 12:24:23;;;;;;;103.43;50.58;;;;;;;;;;5095019;28;20445;-59
2022/01/20 12:26:49;;;;;;;95.97;45.05;;;;;;;;;;5094572;28;20020;-60
2022/01/20 12:29:15;;;;;;;103.15;46.83;;;;;;;;;;5091230;28;20048;-60
2022/01/20 12:31:45;;;;;;;105.93;50.70;;;;;;;;;;5094880;28;20016;-60
2022/01/20 12:34:12;;;;;;;93.80;45.15;;;;;;;;;;5094831;28;20484;-59
2022/01/20 12:36:39;;;;;;;81.30;40.30;;;;;;;;;;5095347;28;20021;-65
2022/01/20 12:39:05;;;;;;;82.18;39.05;;;;;;;;;;5094833;28;20039;-60
2022/01/20 12:41:34;;;;;;;86.45;40.53;;;;;;;;;;5094626;28;20016;-59
2022/01/20 12:44:05;;;;;;;80.55;38.40;;;;;;;;;;5094727;28;20031;-63
2022/01/20 12:46:33;;;;;;;84.55;40.85;;;;;;;;;;5094514;28;20022;-59
2022/01/20 12:49:08;;;;;;;106.50;43.05;;;;;;;;;;5094648;28;20043;-59
2022/01/20 12:51:38;;;;;;;77.63;39.40;;;;;;;;;;5094419;28;20031;-59
2022/01/20 12:54:17;;;;;;;110.05;36.28;;;;;;;;;;5094482;28;20539;-60
2022/01/20 12:56:48;;;;;;;69.03;34.90;;;;;;;;;;5092650;28;20103;-59
2022/01/20 12:59:22;;;;;;;81.25;36.85;;;;;;;;;;5092844;28;20036;-59
2022/01/20 13:01:49;;;;;;;81.97;39.08;;;;;;;;;;5094745;28;20023;-60
2022/01/20 13:04:16;;;;;;;80.40;38.35;;;;;;;;;;5091617;28;20016;-59
2022/01/20 13:06:55;;;;;;;77.70;38.20;;;;;;;;;;5094053;28;20020;-60
2022/01/20 13:09:24;;;;;;;75.15;35.92;;;;;;;;;;5092227;28;20043;-60
2022/01/20 13:11:59;;;;;;;72.78;37.00;;;;;;;;;;5094172;28;20510;-60
2022/01/20 13:14:39;;;;;;;75.57;37.20;;;;;;;;;;5094025;28;20426;-59
2022/01/20 13:17:09;;;;;;;79.15;39.95;;;;;;;;;;5092931;28;20023;-60
2022/01/20 13:19:38;;;;;;;75.70;39.45;;;;;;;;;;5091634;28;20012;-60
2022/01/20 13:22:06;;;;;;;85.25;41.90;;;;;;;;;;5093567;28;20026;-59
2022/01/20 13:24:33;;;;;;;87.38;46.42;;;;;;;;;;5093827;28;20474;-60
2022/01/20 13:27:00;;;;;;;89.28;46.80;;;;;;;;;;5094098;28;20028;-59
2022/01/20 13:29:27;;;;;;;96.75;50.25;;;;;;;;;;5093528;28;20056;-60
2022/01/20 13:31:57;;;;;;;89.90;45.22;;;;;;;;;;5093807;28;20462;-59
2022/01/20 13:34:23;;;;;;;69.10;40.20;;;;;;;;;;5091292;28;20024;-59
2022/01/20 13:36:51;;;;;;;74.47;38.50;;;;;;;;;;5093691;28;20025;-60
2022/01/20 13:39:30;;;;;;;69.30;33.42;;;;;;;;;;5093819;28;20055;-60
2022/01/20 13:42:07;;;;;;;61.38;32.58;;;;;;;;;;5093827;28;20387;-60
2022/01/20 13:47:18;;;;;;;82.68;40.00;;;;;;;;;;5093196;28;20043;-59
2022/01/20 13:49:49;;;;;;;81.05;38.55;;;;;;;;;;5093542;28;20077;-60
2022/01/20 13:52:18;;;;;;;92.13;43.65;;;;;;;;;;5093737;28;20038;-59
2022/01/20 13:54:45;;;;;;;92.43;42.83;;;;;;;;;;5090780;28;20485;-60
2022/01/20 13:57:11;;;;;;;90.15;44.30;;;;;;;;;;5093299;28;20032;-59
2022/01/20 13:59:50;;;;;;;75.43;38.65;;;;;;;;;;5093231;28;20521;-59
2022/01/20 14:02:16;;;;;;;90.15;40.95;;;;;;;;;;5093215;28;20028;-60
2022/01/20 14:04:42;;;;;;;94.20;44.20;;;;;;;;;;5093263;28;20020;-60
2022/01/20 14:07:08;;;;;;;111.72;53.78;;;;;;;;;;5093080;28;20049;-60
2022/01/20 14:09:36;;;;;;;118.53;55.55;;;;;;;;;;5093062;28;20028;-60
2022/01/20 14:12:03;;;;;;;107.50;53.35;;;;;;;;;;5090401;28;20495;-61
2022/01/20 14:14:30;;;;;;;123.38;57.50;;;;;;;;;;5093055;28;20020;-61
2022/01/20 14:17:04;;;;;;;121.65;58.58;;;;;;;;;;5093048;28;20032;-60
2022/01/20 14:19:34;;;;;;;111.70;50.70;;;;;;;;;;5091789;28;20028;-61
2022/01/20 14:22:01;;;;;;;126.88;61.20;;;;;;;;;;5087187;28;20022;-63
2022/01/20 14:24:29;;;;;;;143.88;66.25;;;;;;;;;;5092416;28;20073;-59
2022/01/20 14:27:01;;;;;;;132.35;60.83;;;;;;;;;;5083455;28;20359;-60
2022/01/20 14:29:27;;;;;;;;;;;;;;;;;;5094397;28;20063;-59
2022/01/20 14:31:53;;;;;;;131.15;61.35;;;;;;;;;;5087496;28;19908;-61
2022/01/20 14:34:20;;;;;;;113.85;54.60;;;;;;;;;;5088252;28;20051;-61
2022/01/20 14:36:46;;;;;;;111.60;50.40;;;;;;;;;;5096358;28;20124;-62
2022/01/20 14:39:12;;;;;;;140.27;65.35;;;;;;;;;;5074798;28;20110;-61
2022/01/20 14:41:38;;;;;;;157.90;69.53;;;;;;;;;;5094506;28;20020;-58
2022/01/20 14:44:05;;;;;;;149.00;68.60;;;;;;;;;;5106064;28;20075;-59
2022/01/20 14:46:31;;;;;;;170.10;77.43;;;;;;;;;;5089138;28;20035;-59
2022/01/20 14:48:57;;;;;;;166.68;71.63;;;;;;;;;;5098774;28;20035;-60
2022/01/20 14:51:25;;;;;;;180.48;79.25;;;;;;;;;;5100651;28;20150;-60
2022/01/20 14:53:51;;;;;;;175.07;77.65;;;;;;;;;;5091275;28;20050;-62
2022/01/20 14:56:19;;;;;;;168.80;79.07;;;;;;;;;;5081150;28;20094;-61
2022/01/20 14:58:46;;;;;;;158.43;74.13;;;;;;;;;;5080690;28;20750;-60
2022/01/20 15:01:12;;;;;;;154.45;75.22;;;;;;;;;;5079145;28;20024;-62
2022/01/20 15:03:38;;;;;;;145.10;69.72;;;;;;;;;;5077296;28;20028;-59
2022/01/20 15:06:04;;;;;;;134.77;69.10;;;;;;;;;;5077739;28;20067;-58